WMKN/TGG METAR and TAF weather

Enter ICAO airport designator
Station Type Date Time Source
WMKN METAR 2020/01/28 11:00 UTC NOAA

WMKN 281100Z VRB03KT 9999 SCT018 28/24 Q1009


Station Type Date Time Source
WMKN Decoded METAR 2020/01/28 11:00 UTC NOAA

Station name not available
Jan 28, 2020 - 06:00 AM EST / 2020.01.28 1100 UTC
Wind: Variable at 3 MPH (3 KT):0
Visibility: greater than 7 mile(s):0
Sky conditions: partly cloudy
Temperature: 82 F (28 C)
Dew Point: 75 F (24 C)
Relative Humidity: 78%
Pressure (altimeter): 29.80 in. Hg (1009 hPa)
ob: WMKN 281100Z VRB03KT 9999 SCT018 28/24 Q1009
cycle: 11

Station Type Date Time Source
WMKN TAF 2020/01/28 12:00 UTC NOAA

TAF WMKN 281100Z 2812/2912 05006KT 9999 FEW022
BECMG 2901/2902 04006KT FEW018
BECMG 2911/2912 VRB03KT FEW022

Example: see airport list